• Join FlightAware (Why Join?)
  • Login
  • US Flag 
04:52AM EDT


 

Airport Tracker/Info


-or-


 

Live Flight TrackerFlight Track Log ✈ ASQ5745 ✈ 07-Sep-2013 ✈ KGSO - KIAD

Flight Track Log - Related Links

Times and Time Zones

All times are in EDT time to prevent confusion due to time zone crossing. See the ASQ5745 flight status page for this flight to view local times or setup timezone preferences in your user account.

Time Position Orientation Groundspeed Altitude Reporting Facility
EDT Latitude Longitude Course Direction KTS MPH feet Rate Location/Type
08:02PM 36.3531 -79.7308 61° Northeast  Level Estimated
08:02PM 36.0817 -79.8147 47° Northeast 288 331 7,700  Level Washington Center
08:03PM 36.4370 -79.6604 39° Northeast  Level Estimated
08:03PM 36.1342 -79.7403 49° Northeast 296 341 11,100  Level Washington Center
08:04PM 36.5208 -79.5898 47° Northeast  Level Estimated
08:04PM 36.1892 -79.6583 50° Northeast 296 341 12,300  Level Washington Center
08:05PM 36.6045 -79.5191 44° Northeast  Level Estimated
08:05PM 36.2528 -79.5664 49° Northeast 331 381 13,400  Level Washington Center
08:06PM 36.5863 -79.3951 100° East  Level FlightAware Approximate
08:06PM 36.3164 -79.4692 51° Northeast 360 414 14,700  Level Washington Center
08:07PM 36.6718 -79.3276 47° Northeast  Level Estimated
08:07PM 36.3797 -79.3819 48° Northeast 371 427 16,100  Level Washington Center
08:08PM 36.4583 -79.2747 48° Northeast 371 427 17,800 1,500 Climbing Washington Center
08:09PM 36.5319 -79.1850 44° Northeast 371 427 19,200 1,380 Climbing Washington Center
08:10PM 36.6097 -79.0956 43° Northeast 371 427 20,600 1,140 Climbing Washington Center
08:11PM 36.6769 -79.0053 47° Northeast 377 434 21,500 900 Climbing Washington Center
08:12PM 36.7303 -78.8911 60° Northeast 382 440 22,500 960 Climbing Washington Center
08:13PM 36.7836 -78.7689 61° Northeast 382 440 23,500 1,020 Climbing Washington Center
08:14PM 36.8414 -78.6389 61° Northeast 391 450 24,600 720 Climbing Washington Center
08:15PM 36.9089 -78.5272 53° Northeast 391 450 25,000 180 Climbing Washington Center
08:16PM 37.0044 -78.4475 34° Northeast 396 456 25,000  Level Washington Center
08:17PM 37.0981 -78.3731 32° Northeast 417 480 25,000  Level Washington Center
08:18PM 37.2003 -78.2853 34° Northeast 430 495 25,000  Level Washington Center
08:19PM 37.3022 -78.2003 34° Northeast 440 506 25,000  Level Washington Center
08:20PM 37.4150 -78.1047 34° Northeast 440 506 25,000  Level Washington Center
08:21PM 37.5167 -78.0189 34° Northeast 440 506 25,000 -780 Level Washington Center
08:22PM 37.6228 -77.9281 34° Northeast 446 513 23,500 -2,100 Descending Washington Center
08:23PM 37.7247 -77.8419 34° Northeast 446 513 20,900 -2,580 Descending Washington Center
08:24PM 37.8222 -77.7581 34° Northeast 439 505 18,500 -2,460 Descending Washington Center
08:25PM 37.9175 -77.6764 34° Northeast 433 498 16,000 -2,580 Descending Washington Center
08:26PM 38.0086 -77.5947 35° Northeast 413 475 13,500 -2,640 Descending Washington Center
08:27PM 38.0953 -77.5231 33° Northeast 396 456 10,800 -1,800 Descending Washington Center
08:28PM 38.1756 -77.4539 34° Northeast 370 426 9,900 -420 Descending Washington Center
08:29PM 38.2469 -77.4106 25° Northeast 317 365 10,000 -240 Climbing Washington Center
08:30PM 38.3164 -77.3675 26° Northeast 287 330 9,500 -1,080 Descending Washington Center
08:31PM 38.3939 -77.3586 North 275 316 7,900 -1,620 Descending Washington Center
08:32PM 38.4708 -77.3631 357° North 270 311 6,400 -1,440 Descending Washington Center
08:33PM 38.5458 -77.3650 359° North 270 311 5,000 -720 Descending Washington Center
08:34PM 38.6167 -77.3639 North 270 311 5,000 -60 Level Washington Center
08:35PM 38.6878 -77.3631 North 260 299 4,900 -420 Descending Washington Center
08:36PM 38.8000 -77.3500 North 263 303 4,000 -420 Descending Potomac TRACON
08:37PM 38.8500 -77.3500 360° North 260 299 4,000 -360 Level Potomac TRACON
08:38PM 38.9167 -77.3500 360° North 250 288 3,400 -1,020 Descending Potomac TRACON
08:39PM 38.9833 -77.3500 360° North 263 303 2,000 -720 Descending Potomac TRACON
08:40PM 39.0500 -77.3667 349° North 216 249 2,000  Level Potomac TRACON
08:41PM 39.0333 -77.4333 252° West 186 214 2,000 -540 Level Potomac TRACON
08:42PM 39.0000 -77.4333 180° South 133 153 1,000 -960 Descending Potomac TRACON